Airfield :
LOGIN :

Register | Disclaimer

   EN    FR    IT 

 










Legend :    VFR   Marginal VFR   IFR   Intensive IFR   Very Intensive IFR
Visi :
Ceiling :
>= 8 km
>= 3000ft
5 to 8 km
1000 to 3000 ft
1500m to 5 km
500 to 1000 ft
800 to 1500m
200 to 500 ft
< 800m
< 200 ft
Symbols :   Thunderstorms  Fog  Heavy snow  Heavy precipitations  Wind > 20 kt
SIGMETs :     Misc.  Thunderstorms  Icing  Turbulence  Mountain Waves  Volcanic Ashes






- Airport Elevation : 102 ft
- IATA code : EXT


EGTE - Exeter

CURRENT METAR :
  • 270920Z 15013KT 4000 -RADZ BR SCT005 BKN018 12/12 Q0994

EXPIRED METARs :
  • 270850Z 15015KT 4000 -RADZ BR SCT005 BKN018 12/12 Q0995
  • 270820Z 16013KT 140V200 4000 -DZRA SCT005 BKN018 12/11 Q0995

TAF AMD TAF EGTE
Valid from the 27 at 09:00 until the 27 at 18:00 UTC


270905Z 2709/2718 18008KT 9999 SCT005 BKN016
BECMG 2709/2712 26012KT
TEMPO 2709/2711 4000 RA BKN005
PROB30
TEMPO 2709/2710 19015G25KT
PROB30
TEMPO 2710/2718 27015G25KT



MET'MAP, your aeronautical weather chart ! - Copyright ORBIFLY December 2007 - Disclaimer

ORBIFLY MET'MAP TEAM :

Programming & Development : Alexandra Zaïnal
Concept & original design : Baudouin d'Aumeries
Assistance for programming : Marc-Olivier Méhu
Technical & hardware support : Manuel Goepfert

Contact : metmap@orbifly.com




SOURCES & CREDITS :

   NOAA